Terminal Aerodrome Forecast
Issued by NWS Kansas City/Pleasant Hill, MO

Home | Current Version | Previous Version | Text Only | Print | Product List | Glossary On
Versions: 1 2 3 4 5 6 7 8 9 10 11 12 13 14 15
000
FTUS43 KEAX 020800 AAA
TAFMCI
TAF AMD
KMCI 020803Z 0208/0306 35015KT P6SM -RA OVC019
      TEMPO 0209/0212 -TSRA BKN015CB
     FM021200 03010KT P6SM VCSH BKN025
     FM021400 01011KT P6SM SCT050=

USA.gov is the U.S. government's official web portal to all federal, state and local government web resources and services.